Terminal Aerodrome Forecast
Issued by NWS Cleveland, OH

Home | Current Version | Previous Version | Text Only | Print | Product List | Glossary On
Versions: 1 2 3 4 5 6 7 8 9 10 11 12 13 14
000
FTUS41 KCLE 171140
TAFCAK
TAF
KCAK 171140Z 1712/1812 24006KT P6SM -SN OVC015
      TEMPO 1712/1715 5SM -SHSN BKN009 BKN015
     FM171700 24010KT P6SM SCT020
     FM171900 24010KT P6SM BKN025
     FM180000 23012KT P6SM SCT030 BKN120=

USA.gov is the U.S. government's official web portal to all federal, state and local government web resources and services.